sensor_id;sensor_type;location;lat;lon;timestamp;P1;durP1;ratioP1;P2;durP2;ratioP2
39772;SDS011;25451;51.960;6.250;2022-11-11T00:01:14;9.25;;;3.08;;
39772;SDS011;25451;51.960;6.250;2022-11-11T00:03:41;6.80;;;2.88;;
39772;SDS011;25451;51.960;6.250;2022-11-11T00:06:08;9.70;;;3.65;;
39772;SDS011;25451;51.960;6.250;2022-11-11T00:08:35;7.63;;;3.15;;
39772;SDS011;25451;51.960;6.250;2022-11-11T00:11:02;8.70;;;3.00;;
39772;SDS011;25451;51.960;6.250;2022-11-11T00:13:29;7.63;;;3.10;;
39772;SDS011;25451;51.960;6.250;2022-11-11T00:15:55;7.53;;;3.38;;
39772;SDS011;25451;51.960;6.250;2022-11-11T00:18:20;7.90;;;3.15;;
39772;SDS011;25451;51.960;6.250;2022-11-11T00:21:06;9.27;;;2.90;;
39772;SDS011;25451;51.960;6.250;2022-11-11T00:23:55;6.53;;;3.13;;
39772;SDS011;25451;51.960;6.250;2022-11-11T00:26:39;7.75;;;3.03;;
39772;SDS011;25451;51.960;6.250;2022-11-11T00:29:05;8.60;;;3.23;;
39772;SDS011;25451;51.960;6.250;2022-11-11T00:31:30;6.23;;;3.00;;
39772;SDS011;25451;51.960;6.250;2022-11-11T00:33:55;11.10;;;3.10;;
39772;SDS011;25451;51.960;6.250;2022-11-11T00:36:20;6.27;;;2.93;;
39772;SDS011;25451;51.960;6.250;2022-11-11T00:38:46;8.10;;;2.77;;
39772;SDS011;25451;51.960;6.250;2022-11-11T00:41:18;6.82;;;2.97;;
39772;SDS011;25451;51.960;6.250;2022-11-11T00:43:45;7.40;;;2.90;;
39772;SDS011;25451;51.960;6.250;2022-11-11T00:46:12;5.67;;;2.77;;
39772;SDS011;25451;51.960;6.250;2022-11-11T00:48:57;9.95;;;3.20;;
39772;SDS011;25451;51.960;6.250;2022-11-11T00:51:41;5.68;;;2.90;;
39772;SDS011;25451;51.960;6.250;2022-11-11T00:54:06;10.47;;;3.30;;
39772;SDS011;25451;51.960;6.250;2022-11-11T00:56:32;9.25;;;3.08;;
39772;SDS011;25451;51.960;6.250;2022-11-11T00:59:00;7.50;;;3.00;;
39772;SDS011;25451;51.960;6.250;2022-11-11T01:01:26;10.10;;;3.33;;
39772;SDS011;25451;51.960;6.250;2022-11-11T01:03:51;6.50;;;2.97;;
39772;SDS011;25451;51.960;6.250;2022-11-11T01:06:16;8.03;;;2.87;;
39772;SDS011;25451;51.960;6.250;2022-11-11T01:08:41;6.83;;;2.97;;
39772;SDS011;25451;51.960;6.250;2022-11-11T01:11:11;7.70;;;3.08;;
39772;SDS011;25451;51.960;6.250;2022-11-11T01:13:38;7.03;;;3.30;;
39772;SDS011;25451;51.960;6.250;2022-11-11T01:16:05;7.33;;;3.10;;
39772;SDS011;25451;51.960;6.250;2022-11-11T01:18:31;9.02;;;3.40;;
39772;SDS011;25451;51.960;6.250;2022-11-11T01:23:28;9.50;;;3.50;;
39772;SDS011;25451;51.960;6.250;2022-11-11T01:25:59;8.40;;;3.20;;
39772;SDS011;25451;51.960;6.250;2022-11-11T01:28:25;8.68;;;3.47;;
39772;SDS011;25451;51.960;6.250;2022-11-11T01:30:51;7.77;;;3.10;;
39772;SDS011;25451;51.960;6.250;2022-11-11T01:33:16;6.87;;;2.90;;
39772;SDS011;25451;51.960;6.250;2022-11-11T01:35:41;8.80;;;3.17;;
39772;SDS011;25451;51.960;6.250;2022-11-11T01:38:07;12.17;;;3.30;;
39772;SDS011;25451;51.960;6.250;2022-11-11T01:40:40;7.68;;;3.30;;
39772;SDS011;25451;51.960;6.250;2022-11-11T01:48:18;9.15;;;3.40;;
39772;SDS011;25451;51.960;6.250;2022-11-11T01:51:11;7.30;;;3.25;;
39772;SDS011;25451;51.960;6.250;2022-11-11T01:54:02;10.27;;;3.60;;
39772;SDS011;25451;51.960;6.250;2022-11-11T01:56:32;10.60;;;4.20;;
39772;SDS011;25451;51.960;6.250;2022-11-11T01:59:01;12.70;;;4.55;;
39772;SDS011;25451;51.960;6.250;2022-11-11T02:01:30;10.27;;;4.07;;
39772;SDS011;25451;51.960;6.250;2022-11-11T02:03:56;10.63;;;4.35;;
39772;SDS011;25451;51.960;6.250;2022-11-11T02:06:42;10.02;;;4.32;;
39772;SDS011;25451;51.960;6.250;2022-11-11T02:09:07;10.52;;;4.40;;
39772;SDS011;25451;51.960;6.250;2022-11-11T02:11:33;10.23;;;4.60;;
39772;SDS011;25451;51.960;6.250;2022-11-11T02:14:19;12.80;;;4.82;;
39772;SDS011;25451;51.960;6.250;2022-11-11T02:17:00;12.82;;;4.90;;
39772;SDS011;25451;51.960;6.250;2022-11-11T02:19:41;15.25;;;4.97;;
39772;SDS011;25451;51.960;6.250;2022-11-11T02:22:13;12.48;;;5.10;;
39772;SDS011;25451;51.960;6.250;2022-11-11T02:24:47;11.68;;;4.53;;
39772;SDS011;25451;51.960;6.250;2022-11-11T02:27:13;14.27;;;5.22;;
39772;SDS011;25451;51.960;6.250;2022-11-11T02:29:40;12.52;;;4.80;;
39772;SDS011;25451;51.960;6.250;2022-11-11T02:32:08;13.35;;;5.38;;
39772;SDS011;25451;51.960;6.250;2022-11-11T02:34:34;13.03;;;5.50;;
39772;SDS011;25451;51.960;6.250;2022-11-11T02:36:59;9.77;;;5.07;;
39772;SDS011;25451;51.960;6.250;2022-11-11T02:39:28;10.93;;;5.30;;
39772;SDS011;25451;51.960;6.250;2022-11-11T02:41:54;11.95;;;5.65;;
39772;SDS011;25451;51.960;6.250;2022-11-11T02:44:23;13.00;;;5.80;;
39772;SDS011;25451;51.960;6.250;2022-11-11T02:46:49;10.73;;;5.10;;
39772;SDS011;25451;51.960;6.250;2022-11-11T02:49:16;12.55;;;6.15;;
39772;SDS011;25451;51.960;6.250;2022-11-11T02:51:41;13.40;;;5.50;;
39772;SDS011;25451;51.960;6.250;2022-11-11T02:54:06;11.40;;;5.57;;
39772;SDS011;25451;51.960;6.250;2022-11-11T02:56:32;11.82;;;5.63;;
39772;SDS011;25451;51.960;6.250;2022-11-11T02:59:15;12.63;;;6.00;;
39772;SDS011;25451;51.960;6.250;2022-11-11T03:01:40;14.17;;;6.20;;
39772;SDS011;25451;51.960;6.250;2022-11-11T03:04:06;11.82;;;5.85;;
39772;SDS011;25451;51.960;6.250;2022-11-11T03:06:31;11.93;;;5.70;;
39772;SDS011;25451;51.960;6.250;2022-11-11T03:08:56;12.40;;;5.73;;
39772;SDS011;25451;51.960;6.250;2022-11-11T03:11:22;13.77;;;5.57;;
39772;SDS011;25451;51.960;6.250;2022-11-11T03:13:53;13.95;;;5.65;;
39772;SDS011;25451;51.960;6.250;2022-11-11T03:16:20;12.65;;;5.50;;
39772;SDS011;25451;51.960;6.250;2022-11-11T03:19:04;13.90;;;6.28;;
39772;SDS011;25451;51.960;6.250;2022-11-11T03:21:29;14.03;;;5.97;;
39772;SDS011;25451;51.960;6.250;2022-11-11T03:23:54;12.17;;;5.77;;
39772;SDS011;25451;51.960;6.250;2022-11-11T03:26:19;15.90;;;6.07;;
39772;SDS011;25451;51.960;6.250;2022-11-11T03:28:45;13.50;;;5.80;;
39772;SDS011;25451;51.960;6.250;2022-11-11T03:31:10;12.67;;;6.00;;
39772;SDS011;25451;51.960;6.250;2022-11-11T03:33:36;14.80;;;6.30;;
39772;SDS011;25451;51.960;6.250;2022-11-11T03:36:01;14.23;;;6.20;;
39772;SDS011;25451;51.960;6.250;2022-11-11T03:38:26;16.03;;;5.87;;
39772;SDS011;25451;51.960;6.250;2022-11-11T03:40:52;10.80;;;5.47;;
39772;SDS011;25451;51.960;6.250;2022-11-11T03:43:22;12.17;;;5.73;;
39772;SDS011;25451;51.960;6.250;2022-11-11T03:45:49;14.52;;;6.35;;
39772;SDS011;25451;51.960;6.250;2022-11-11T03:48:15;11.65;;;5.53;;
39772;SDS011;25451;51.960;6.250;2022-11-11T03:50:41;12.17;;;5.50;;
39772;SDS011;25451;51.960;6.250;2022-11-11T03:53:06;15.40;;;5.73;;
39772;SDS011;25451;51.960;6.250;2022-11-11T03:55:32;11.20;;;5.88;;
39772;SDS011;25451;51.960;6.250;2022-11-11T03:57:58;13.97;;;6.00;;
39772;SDS011;25451;51.960;6.250;2022-11-11T04:00:24;10.67;;;5.73;;
39772;SDS011;25451;51.960;6.250;2022-11-11T04:02:51;14.73;;;6.03;;
39772;SDS011;25451;51.960;6.250;2022-11-11T04:05:44;13.02;;;6.20;;
39772;SDS011;25451;51.960;6.250;2022-11-11T04:08:29;13.70;;;5.80;;
39772;SDS011;25451;51.960;6.250;2022-11-11T04:11:14;13.82;;;6.35;;
39772;SDS011;25451;51.960;6.250;2022-11-11T04:13:43;13.50;;;6.20;;
39772;SDS011;25451;51.960;6.250;2022-11-11T04:16:31;13.05;;;5.82;;
39772;SDS011;25451;51.960;6.250;2022-11-11T04:18:56;15.37;;;6.60;;
39772;SDS011;25451;51.960;6.250;2022-11-11T04:21:40;12.48;;;6.10;;
39772;SDS011;25451;51.960;6.250;2022-11-11T04:24:09;16.17;;;6.93;;
39772;SDS011;25451;51.960;6.250;2022-11-11T04:26:53;12.48;;;6.07;;
39772;SDS011;25451;51.960;6.250;2022-11-11T04:29:20;15.68;;;6.50;;
39772;SDS011;25451;51.960;6.250;2022-11-11T04:31:52;13.52;;;6.80;;
39772;SDS011;25451;51.960;6.250;2022-11-11T04:34:36;13.98;;;6.28;;
39772;SDS011;25451;51.960;6.250;2022-11-11T04:37:02;14.63;;;7.43;;
39772;SDS011;25451;51.960;6.250;2022-11-11T04:39:27;15.97;;;6.90;;
39772;SDS011;25451;51.960;6.250;2022-11-11T04:42:11;12.90;;;7.13;;
39772;SDS011;25451;51.960;6.250;2022-11-11T04:44:36;15.90;;;7.17;;
39772;SDS011;25451;51.960;6.250;2022-11-11T04:47:20;17.77;;;7.45;;
39772;SDS011;25451;51.960;6.250;2022-11-11T04:49:45;14.13;;;6.97;;
39772;SDS011;25451;51.960;6.250;2022-11-11T04:52:10;12.07;;;6.33;;
39772;SDS011;25451;51.960;6.250;2022-11-11T04:54:50;17.50;;;7.65;;
39772;SDS011;25451;51.960;6.250;2022-11-11T04:57:38;15.40;;;6.60;;
39772;SDS011;25451;51.960;6.250;2022-11-11T05:00:08;14.30;;;6.93;;
39772;SDS011;25451;51.960;6.250;2022-11-11T05:02:35;17.67;;;7.20;;
39772;SDS011;25451;51.960;6.250;2022-11-11T05:05:30;14.77;;;6.75;;
39772;SDS011;25451;51.960;6.250;2022-11-11T05:08:15;15.88;;;7.00;;
39772;SDS011;25451;51.960;6.250;2022-11-11T05:10:59;14.73;;;7.13;;
39772;SDS011;25451;51.960;6.250;2022-11-11T05:13:24;15.37;;;7.57;;
39772;SDS011;25451;51.960;6.250;2022-11-11T05:16:22;18.75;;;8.18;;
39772;SDS011;25451;51.960;6.250;2022-11-11T05:19:09;18.13;;;8.73;;
39772;SDS011;25451;51.960;6.250;2022-11-11T05:21:55;24.85;;;10.05;;
39772;SDS011;25451;51.960;6.250;2022-11-11T05:24:25;22.50;;;9.48;;
39772;SDS011;25451;51.960;6.250;2022-11-11T05:27:08;23.67;;;10.20;;
39772;SDS011;25451;51.960;6.250;2022-11-11T05:29:34;18.40;;;8.50;;
39772;SDS011;25451;51.960;6.250;2022-11-11T05:32:00;22.20;;;10.20;;
39772;SDS011;25451;51.960;6.250;2022-11-11T05:34:26;22.73;;;10.05;;
39772;SDS011;25451;51.960;6.250;2022-11-11T05:36:51;27.23;;;11.40;;
39772;SDS011;25451;51.960;6.250;2022-11-11T05:39:16;24.77;;;10.27;;
39772;SDS011;25451;51.960;6.250;2022-11-11T05:41:42;25.80;;;10.77;;
39772;SDS011;25451;51.960;6.250;2022-11-11T05:44:07;26.03;;;11.23;;
39772;SDS011;25451;51.960;6.250;2022-11-11T05:46:32;27.57;;;11.70;;
39772;SDS011;25451;51.960;6.250;2022-11-11T05:48:57;30.57;;;12.03;;
39772;SDS011;25451;51.960;6.250;2022-11-11T05:51:41;27.23;;;10.30;;
39772;SDS011;25451;51.960;6.250;2022-11-11T05:54:07;21.15;;;9.32;;
39772;SDS011;25451;51.960;6.250;2022-11-11T05:56:33;29.20;;;11.63;;
39772;SDS011;25451;51.960;6.250;2022-11-11T05:58:58;24.73;;;10.93;;
39772;SDS011;25451;51.960;6.250;2022-11-11T06:01:24;25.70;;;10.47;;
39772;SDS011;25451;51.960;6.250;2022-11-11T06:03:49;22.95;;;9.73;;
39772;SDS011;25451;51.960;6.250;2022-11-11T06:06:14;25.40;;;10.57;;
39772;SDS011;25451;51.960;6.250;2022-11-11T06:08:40;25.17;;;10.27;;
39772;SDS011;25451;51.960;6.250;2022-11-11T06:11:05;24.50;;;10.20;;
39772;SDS011;25451;51.960;6.250;2022-11-11T06:13:31;21.30;;;9.37;;
39772;SDS011;25451;51.960;6.250;2022-11-11T06:15:57;19.40;;;8.63;;
39772;SDS011;25451;51.960;6.250;2022-11-11T06:18:22;18.50;;;7.88;;
39772;SDS011;25451;51.960;6.250;2022-11-11T06:20:52;19.87;;;8.93;;
39772;SDS011;25451;51.960;6.250;2022-11-11T06:23:21;16.33;;;7.95;;
39772;SDS011;25451;51.960;6.250;2022-11-11T06:25:47;15.38;;;7.45;;
39772;SDS011;25451;51.960;6.250;2022-11-11T06:28:31;19.02;;;7.88;;
39772;SDS011;25451;51.960;6.250;2022-11-11T06:30:57;17.83;;;7.33;;
39772;SDS011;25451;51.960;6.250;2022-11-11T06:33:22;16.20;;;7.35;;
39772;SDS011;25451;51.960;6.250;2022-11-11T06:35:47;15.98;;;6.65;;
39772;SDS011;25451;51.960;6.250;2022-11-11T06:38:13;13.07;;;6.50;;
39772;SDS011;25451;51.960;6.250;2022-11-11T06:40:38;13.23;;;6.50;;
39772;SDS011;25451;51.960;6.250;2022-11-11T06:43:05;11.75;;;6.07;;
39772;SDS011;25451;51.960;6.250;2022-11-11T06:45:31;14.07;;;6.17;;
39772;SDS011;25451;51.960;6.250;2022-11-11T06:47:57;13.27;;;6.65;;
39772;SDS011;25451;51.960;6.250;2022-11-11T06:50:22;9.00;;;5.18;;
39772;SDS011;25451;51.960;6.250;2022-11-11T06:52:48;13.50;;;5.63;;
39772;SDS011;25451;51.960;6.250;2022-11-11T06:55:13;12.40;;;5.77;;
39772;SDS011;25451;51.960;6.250;2022-11-11T06:57:39;12.97;;;5.13;;
39772;SDS011;25451;51.960;6.250;2022-11-11T07:00:05;11.83;;;5.33;;
39772;SDS011;25451;51.960;6.250;2022-11-11T07:02:31;10.13;;;5.15;;
39772;SDS011;25451;51.960;6.250;2022-11-11T07:04:56;10.10;;;5.17;;
39772;SDS011;25451;51.960;6.250;2022-11-11T07:07:22;10.30;;;4.57;;
39772;SDS011;25451;51.960;6.250;2022-11-11T07:09:47;7.60;;;3.90;;
39772;SDS011;25451;51.960;6.250;2022-11-11T07:12:12;8.27;;;4.27;;
39772;SDS011;25451;51.960;6.250;2022-11-11T07:14:38;10.87;;;4.90;;
39772;SDS011;25451;51.960;6.250;2022-11-11T07:17:03;11.00;;;4.97;;
39772;SDS011;25451;51.960;6.250;2022-11-11T07:19:29;11.30;;;4.30;;
39772;SDS011;25451;51.960;6.250;2022-11-11T07:21:54;7.73;;;3.80;;
39772;SDS011;25451;51.960;6.250;2022-11-11T07:24:19;8.90;;;4.47;;
39772;SDS011;25451;51.960;6.250;2022-11-11T07:26:45;9.13;;;4.30;;
39772;SDS011;25451;51.960;6.250;2022-11-11T07:29:10;8.93;;;3.80;;
39772;SDS011;25451;51.960;6.250;2022-11-11T07:31:38;7.78;;;3.25;;
39772;SDS011;25451;51.960;6.250;2022-11-11T07:34:03;7.38;;;3.60;;
39772;SDS011;25451;51.960;6.250;2022-11-11T07:36:29;8.33;;;3.50;;
39772;SDS011;25451;51.960;6.250;2022-11-11T07:38:54;7.53;;;3.50;;
39772;SDS011;25451;51.960;6.250;2022-11-11T07:41:19;6.87;;;3.40;;
39772;SDS011;25451;51.960;6.250;2022-11-11T07:43:45;9.40;;;3.63;;
39772;SDS011;25451;51.960;6.250;2022-11-11T07:46:10;8.60;;;3.50;;
39772;SDS011;25451;51.960;6.250;2022-11-11T07:48:35;8.03;;;3.30;;
39772;SDS011;25451;51.960;6.250;2022-11-11T07:51:01;6.60;;;3.37;;
39772;SDS011;25451;51.960;6.250;2022-11-11T07:53:26;8.90;;;3.30;;
39772;SDS011;25451;51.960;6.250;2022-11-11T07:55:52;7.13;;;3.45;;
39772;SDS011;25451;51.960;6.250;2022-11-11T07:58:18;6.97;;;2.90;;
39772;SDS011;25451;51.960;6.250;2022-11-11T08:00:43;5.97;;;2.87;;
39772;SDS011;25451;51.960;6.250;2022-11-11T08:03:08;7.55;;;3.17;;
39772;SDS011;25451;51.960;6.250;2022-11-11T08:05:34;9.68;;;3.70;;
39772;SDS011;25451;51.960;6.250;2022-11-11T08:08:03;7.83;;;3.33;;
39772;SDS011;25451;51.960;6.250;2022-11-11T08:10:30;6.15;;;3.20;;
39772;SDS011;25451;51.960;6.250;2022-11-11T08:12:55;6.00;;;3.10;;
39772;SDS011;25451;51.960;6.250;2022-11-11T08:15:39;7.43;;;3.13;;
39772;SDS011;25451;51.960;6.250;2022-11-11T08:18:05;7.30;;;3.08;;
39772;SDS011;25451;51.960;6.250;2022-11-11T08:20:31;7.57;;;3.37;;
39772;SDS011;25451;51.960;6.250;2022-11-11T08:22:56;6.50;;;2.88;;
39772;SDS011;25451;51.960;6.250;2022-11-11T08:25:23;8.15;;;3.20;;
39772;SDS011;25451;51.960;6.250;2022-11-11T08:27:49;6.85;;;2.97;;
39772;SDS011;25451;51.960;6.250;2022-11-11T08:30:20;6.95;;;3.30;;
39772;SDS011;25451;51.960;6.250;2022-11-11T08:32:45;7.03;;;3.03;;
39772;SDS011;25451;51.960;6.250;2022-11-11T08:35:10;9.87;;;2.80;;
39772;SDS011;25451;51.960;6.250;2022-11-11T08:37:35;7.80;;;3.03;;
39772;SDS011;25451;51.960;6.250;2022-11-11T08:40:01;5.60;;;3.10;;
39772;SDS011;25451;51.960;6.250;2022-11-11T08:42:26;8.23;;;3.00;;
39772;SDS011;25451;51.960;6.250;2022-11-11T08:44:52;6.30;;;3.00;;
39772;SDS011;25451;51.960;6.250;2022-11-11T08:47:17;6.50;;;2.90;;
39772;SDS011;25451;51.960;6.250;2022-11-11T08:49:44;7.57;;;2.95;;
39772;SDS011;25451;51.960;6.250;2022-11-11T08:52:10;6.95;;;2.70;;
39772;SDS011;25451;51.960;6.250;2022-11-11T08:54:35;8.05;;;3.10;;
39772;SDS011;25451;51.960;6.250;2022-11-11T08:57:00;8.17;;;2.90;;
39772;SDS011;25451;51.960;6.250;2022-11-11T08:59:26;7.80;;;2.60;;
39772;SDS011;25451;51.960;6.250;2022-11-11T09:01:51;7.13;;;2.60;;
39772;SDS011;25451;51.960;6.250;2022-11-11T09:04:16;8.37;;;2.83;;
39772;SDS011;25451;51.960;6.250;2022-11-11T09:06:42;4.93;;;2.30;;
39772;SDS011;25451;51.960;6.250;2022-11-11T09:09:09;8.23;;;3.00;;
39772;SDS011;25451;51.960;6.250;2022-11-11T09:11:35;6.63;;;2.63;;
39772;SDS011;25451;51.960;6.250;2022-11-11T09:14:00;6.17;;;2.60;;
39772;SDS011;25451;51.960;6.250;2022-11-11T09:16:26;6.55;;;2.78;;
39772;SDS011;25451;51.960;6.250;2022-11-11T09:18:51;8.40;;;2.67;;
39772;SDS011;25451;51.960;6.250;2022-11-11T09:21:16;5.93;;;2.30;;
39772;SDS011;25451;51.960;6.250;2022-11-11T09:23:42;5.55;;;2.45;;
39772;SDS011;25451;51.960;6.250;2022-11-11T09:26:07;5.10;;;2.50;;
39772;SDS011;25451;51.960;6.250;2022-11-11T09:28:32;6.73;;;2.47;;
39772;SDS011;25451;51.960;6.250;2022-11-11T09:30:59;8.70;;;2.40;;
39772;SDS011;25451;51.960;6.250;2022-11-11T09:33:24;6.60;;;2.50;;
39772;SDS011;25451;51.960;6.250;2022-11-11T09:35:50;4.57;;;2.20;;
39772;SDS011;25451;51.960;6.250;2022-11-11T09:38:15;5.73;;;2.40;;
39772;SDS011;25451;51.960;6.250;2022-11-11T09:43:41;5.50;;;2.40;;
39772;SDS011;25451;51.960;6.250;2022-11-11T09:46:21;5.97;;;2.42;;
39772;SDS011;25451;51.960;6.250;2022-11-11T09:48:58;5.72;;;2.33;;
39772;SDS011;25451;51.960;6.250;2022-11-11T09:51:46;6.38;;;2.47;;
39772;SDS011;25451;51.960;6.250;2022-11-11T09:54:18;5.27;;;2.37;;
39772;SDS011;25451;51.960;6.250;2022-11-11T09:56:54;5.38;;;2.10;;
39772;SDS011;25451;51.960;6.250;2022-11-11T09:59:23;5.40;;;2.30;;
39772;SDS011;25451;51.960;6.250;2022-11-11T10:01:55;7.00;;;2.40;;
39772;SDS011;25451;51.960;6.250;2022-11-11T10:04:29;6.07;;;2.20;;
39772;SDS011;25451;51.960;6.250;2022-11-11T10:07:11;7.03;;;2.38;;
39772;SDS011;25451;51.960;6.250;2022-11-11T10:09:58;5.68;;;2.30;;
39772;SDS011;25451;51.960;6.250;2022-11-11T10:12:34;4.73;;;2.07;;
39772;SDS011;25451;51.960;6.250;2022-11-11T10:15:19;7.97;;;2.15;;
39772;SDS011;25451;51.960;6.250;2022-11-11T10:20:33;5.38;;;2.20;;
39772;SDS011;25451;51.960;6.250;2022-11-11T10:23:08;4.53;;;2.10;;
39772;SDS011;25451;51.960;6.250;2022-11-11T10:25:39;6.80;;;2.10;;
39772;SDS011;25451;51.960;6.250;2022-11-11T10:28:16;6.75;;;2.15;;
39772;SDS011;25451;51.960;6.250;2022-11-11T10:30:44;6.43;;;2.20;;
39772;SDS011;25451;51.960;6.250;2022-11-11T10:33:13;4.45;;;2.00;;
39772;SDS011;25451;51.960;6.250;2022-11-11T10:35:43;5.60;;;2.10;;
39772;SDS011;25451;51.960;6.250;2022-11-11T10:38:18;4.93;;;2.30;;
39772;SDS011;25451;51.960;6.250;2022-11-11T10:40:51;6.28;;;2.30;;
39772;SDS011;25451;51.960;6.250;2022-11-11T10:51:33;5.43;;;2.33;;
39772;SDS011;25451;51.960;6.250;2022-11-11T10:54:11;4.72;;;2.10;;
39772;SDS011;25451;51.960;6.250;2022-11-11T10:56:43;4.80;;;2.58;;
39772;SDS011;25451;51.960;6.250;2022-11-11T10:59:23;6.50;;;2.30;;
39772;SDS011;25451;51.960;6.250;2022-11-11T11:04:57;5.43;;;2.30;;
39772;SDS011;25451;51.960;6.250;2022-11-11T11:07:33;6.97;;;2.28;;
39772;SDS011;25451;51.960;6.250;2022-11-11T11:10:06;5.40;;;2.10;;
39772;SDS011;25451;51.960;6.250;2022-11-11T11:12:42;4.32;;;2.20;;
39772;SDS011;25451;51.960;6.250;2022-11-11T11:15:10;3.92;;;1.95;;
39772;SDS011;25451;51.960;6.250;2022-11-11T11:17:44;5.80;;;2.10;;
39772;SDS011;25451;51.960;6.250;2022-11-11T11:20:13;6.85;;;1.90;;
39772;SDS011;25451;51.960;6.250;2022-11-11T11:25:16;6.72;;;2.20;;
39772;SDS011;25451;51.960;6.250;2022-11-11T11:27:43;4.60;;;2.10;;
39772;SDS011;25451;51.960;6.250;2022-11-11T11:30:30;3.57;;;1.80;;
39772;SDS011;25451;51.960;6.250;2022-11-11T11:33:01;6.40;;;1.98;;
39772;SDS011;25451;51.960;6.250;2022-11-11T11:35:41;5.32;;;1.98;;
39772;SDS011;25451;51.960;6.250;2022-11-11T11:38:09;3.75;;;1.85;;
39772;SDS011;25451;51.960;6.250;2022-11-11T11:40:54;3.65;;;1.80;;
39772;SDS011;25451;51.960;6.250;2022-11-11T11:43:39;3.93;;;1.80;;
39772;SDS011;25451;51.960;6.250;2022-11-11T11:46:19;3.88;;;1.83;;
39772;SDS011;25451;51.960;6.250;2022-11-11T11:51:51;4.07;;;2.05;;
39772;SDS011;25451;51.960;6.250;2022-11-11T12:00:20;5.55;;;2.10;;
39772;SDS011;25451;51.960;6.250;2022-11-11T12:05:55;4.82;;;1.70;;
39772;SDS011;25451;51.960;6.250;2022-11-11T12:24:57;4.83;;;1.73;;
39772;SDS011;25451;51.960;6.250;2022-11-11T12:29:58;5.15;;;1.92;;
39772;SDS011;25451;51.960;6.250;2022-11-11T12:35:22;5.00;;;1.77;;
39772;SDS011;25451;51.960;6.250;2022-11-11T12:38:43;5.03;;;1.80;;
39772;SDS011;25451;51.960;6.250;2022-11-11T12:41:23;3.83;;;1.92;;
39772;SDS011;25451;51.960;6.250;2022-11-11T12:44:07;4.28;;;1.77;;
39772;SDS011;25451;51.960;6.250;2022-11-11T12:55:02;4.07;;;1.83;;
39772;SDS011;25451;51.960;6.250;2022-11-11T12:57:43;3.95;;;1.90;;
39772;SDS011;25451;51.960;6.250;2022-11-11T13:00:30;5.05;;;1.90;;
39772;SDS011;25451;51.960;6.250;2022-11-11T13:11:28;4.30;;;1.80;;
39772;SDS011;25451;51.960;6.250;2022-11-11T13:16:42;6.47;;;1.90;;
39772;SDS011;25451;51.960;6.250;2022-11-11T13:19:14;5.27;;;1.80;;
39772;SDS011;25451;51.960;6.250;2022-11-11T13:21:52;4.55;;;1.60;;
39772;SDS011;25451;51.960;6.250;2022-11-11T13:24:20;4.68;;;1.65;;
39772;SDS011;25451;51.960;6.250;2022-11-11T13:32:15;5.18;;;1.90;;
39772;SDS011;25451;51.960;6.250;2022-11-11T13:34:46;4.07;;;2.03;;
39772;SDS011;25451;51.960;6.250;2022-11-11T13:37:29;4.25;;;2.10;;
39772;SDS011;25451;51.960;6.250;2022-11-11T13:40:02;5.07;;;1.80;;
39772;SDS011;25451;51.960;6.250;2022-11-11T13:42:37;4.57;;;1.70;;
39772;SDS011;25451;51.960;6.250;2022-11-11T13:45:05;5.70;;;1.98;;
39772;SDS011;25451;51.960;6.250;2022-11-11T13:47:44;3.78;;;1.95;;
39772;SDS011;25451;51.960;6.250;2022-11-11T13:50:13;4.68;;;2.00;;
39772;SDS011;25451;51.960;6.250;2022-11-11T13:53:32;3.67;;;1.73;;
39772;SDS011;25451;51.960;6.250;2022-11-11T13:55:48;5.13;;;2.17;;
39772;SDS011;25451;51.960;6.250;2022-11-11T13:58:36;7.97;;;2.75;;
39772;SDS011;25451;51.960;6.250;2022-11-11T14:01:05;6.50;;;2.63;;
39772;SDS011;25451;51.960;6.250;2022-11-11T14:03:33;6.82;;;2.97;;
39772;SDS011;25451;51.960;6.250;2022-11-11T14:08:49;7.20;;;2.70;;
39772;SDS011;25451;51.960;6.250;2022-11-11T14:13:54;6.07;;;2.63;;
39772;SDS011;25451;51.960;6.250;2022-11-11T14:27:02;6.05;;;2.15;;
39772;SDS011;25451;51.960;6.250;2022-11-11T14:30:01;5.32;;;1.90;;
39772;SDS011;25451;51.960;6.250;2022-11-11T14:37:51;5.45;;;1.98;;
39772;SDS011;25451;51.960;6.250;2022-11-11T14:40:27;6.57;;;1.90;;
39772;SDS011;25451;51.960;6.250;2022-11-11T14:42:56;5.85;;;1.90;;
39772;SDS011;25451;51.960;6.250;2022-11-11T14:47:47;5.27;;;2.10;;
39772;SDS011;25451;51.960;6.250;2022-11-11T14:52:58;3.58;;;1.75;;
39772;SDS011;25451;51.960;6.250;2022-11-11T14:55:29;4.05;;;1.77;;
39772;SDS011;25451;51.960;6.250;2022-11-11T14:58:19;5.72;;;2.00;;
39772;SDS011;25451;51.960;6.250;2022-11-11T15:03:34;6.63;;;2.33;;
39772;SDS011;25451;51.960;6.250;2022-11-11T15:06:05;5.22;;;2.38;;
39772;SDS011;25451;51.960;6.250;2022-11-11T15:22:16;10.25;;;3.92;;
39772;SDS011;25451;51.960;6.250;2022-11-11T15:25:24;8.20;;;3.72;;
39772;SDS011;25451;51.960;6.250;2022-11-11T15:39:12;6.18;;;3.03;;
39772;SDS011;25451;51.960;6.250;2022-11-11T15:41:40;7.03;;;3.70;;
39772;SDS011;25451;51.960;6.250;2022-11-11T15:44:08;8.35;;;3.50;;
39772;SDS011;25451;51.960;6.250;2022-11-11T15:46:43;6.68;;;3.00;;
39772;SDS011;25451;51.960;6.250;2022-11-11T15:49:52;6.75;;;3.30;;
39772;SDS011;25451;51.960;6.250;2022-11-11T15:52:01;7.63;;;3.25;;
39772;SDS011;25451;51.960;6.250;2022-11-11T15:54:27;7.18;;;3.03;;
39772;SDS011;25451;51.960;6.250;2022-11-11T15:56:52;7.97;;;3.10;;
39772;SDS011;25451;51.960;6.250;2022-11-11T15:59:23;7.63;;;2.83;;
39772;SDS011;25451;51.960;6.250;2022-11-11T16:01:54;6.13;;;2.95;;
39772;SDS011;25451;51.960;6.250;2022-11-11T16:04:20;7.10;;;3.00;;
39772;SDS011;25451;51.960;6.250;2022-11-11T16:06:47;6.00;;;2.97;;
39772;SDS011;25451;51.960;6.250;2022-11-11T16:09:14;8.85;;;3.35;;
39772;SDS011;25451;51.960;6.250;2022-11-11T16:11:46;6.57;;;2.85;;
39772;SDS011;25451;51.960;6.250;2022-11-11T16:14:19;5.53;;;3.03;;
39772;SDS011;25451;51.960;6.250;2022-11-11T16:16:52;7.40;;;3.00;;
39772;SDS011;25451;51.960;6.250;2022-11-11T16:19:37;8.23;;;3.27;;
39772;SDS011;25451;51.960;6.250;2022-11-11T16:22:10;7.72;;;2.88;;
39772;SDS011;25451;51.960;6.250;2022-11-11T16:24:49;5.50;;;3.00;;
39772;SDS011;25451;51.960;6.250;2022-11-11T16:27:34;8.65;;;3.55;;
39772;SDS011;25451;51.960;6.250;2022-11-11T16:30:27;7.65;;;3.50;;
39772;SDS011;25451;51.960;6.250;2022-11-11T16:32:56;9.77;;;3.33;;
39772;SDS011;25451;51.960;6.250;2022-11-11T16:35:27;7.50;;;3.38;;
39772;SDS011;25451;51.960;6.250;2022-11-11T16:37:56;5.77;;;2.80;;
39772;SDS011;25451;51.960;6.250;2022-11-11T16:40:25;9.07;;;3.17;;
39772;SDS011;25451;51.960;6.250;2022-11-11T16:42:50;7.13;;;3.10;;
39772;SDS011;25451;51.960;6.250;2022-11-11T16:45:18;7.82;;;3.00;;
39772;SDS011;25451;51.960;6.250;2022-11-11T16:47:46;7.80;;;2.90;;
39772;SDS011;25451;51.960;6.250;2022-11-11T16:50:25;9.32;;;3.03;;
39772;SDS011;25451;51.960;6.250;2022-11-11T16:52:54;8.50;;;3.40;;
39772;SDS011;25451;51.960;6.250;2022-11-11T16:55:37;10.77;;;3.20;;
39772;SDS011;25451;51.960;6.250;2022-11-11T16:58:13;11.68;;;4.30;;
39772;SDS011;25451;51.960;6.250;2022-11-11T17:00:42;11.00;;;4.50;;
39772;SDS011;25451;51.960;6.250;2022-11-11T17:10:56;9.68;;;4.40;;
39772;SDS011;25451;51.960;6.250;2022-11-11T17:13:22;12.10;;;4.60;;
39772;SDS011;25451;51.960;6.250;2022-11-11T17:15:50;13.97;;;5.40;;
39772;SDS011;25451;51.960;6.250;2022-11-11T17:18:16;13.90;;;5.65;;
39772;SDS011;25451;51.960;6.250;2022-11-11T17:20:42;11.85;;;5.15;;
39772;SDS011;25451;51.960;6.250;2022-11-11T17:23:07;10.47;;;4.57;;
39772;SDS011;25451;51.960;6.250;2022-11-11T17:25:33;10.07;;;4.87;;
39772;SDS011;25451;51.960;6.250;2022-11-11T17:27:58;8.73;;;4.43;;
39772;SDS011;25451;51.960;6.250;2022-11-11T17:30:24;8.88;;;4.15;;